Time;durP1;ratioP1;P1;durP2;ratioP2;P2;SDS_P1;SDS_P2;PMS_P1;PMS_P2;Temp;Humidity;BMP_temperature;BMP_pressure;BME280_temperature;BME280_humidity;BME280_pressure;Samples;Min_cycle;Max_cycle;Signal;HPM_P1;HPM_P2
2023/08/14 00:01:28;;;;;;;10.33;3.97;;;;;;;20.43;100.00;98675.72;4912519;29;20295;-56
2023/08/14 00:03:56;;;;;;;10.57;4.13;;;;;;;20.44;100.00;98671.25;4919957;28;20829;-56
2023/08/14 00:06:25;;;;;;;12.87;4.13;;;;;;;20.43;100.00;98686.34;4922691;28;20240;-57
2023/08/14 00:08:52;;;;;;;9.60;4.20;;;;;;;20.43;100.00;98694.28;4920717;28;20240;-55
2023/08/14 00:11:43;;;;;;;8.00;4.03;;;;;;;20.54;100.00;98707.88;4919639;28;20251;-57
2023/08/14 00:14:10;;;;;;;6.73;3.90;;;;;;;20.61;100.00;98730.69;4923907;28;20235;-57
2023/08/14 00:16:36;;;;;;;6.40;3.50;;;;;;;20.79;100.00;98788.34;4923275;28;20252;-57
2023/08/14 00:19:04;;;;;;;7.50;3.50;;;;;;;21.25;100.00;98769.63;4920514;28;20243;-57
2023/08/14 00:21:31;;;;;;;7.87;3.53;;;;;;;21.42;100.00;98748.66;4922685;28;20242;-57
2023/08/14 00:23:58;;;;;;;4.27;3.30;;;;;;;21.45;100.00;98752.72;4920022;28;20585;-58
2023/08/14 00:26:25;;;;;;;6.83;3.50;;;;;;;21.48;100.00;98744.31;4922676;28;20319;-57
2023/08/14 00:28:51;;;;;;;5.57;3.67;;;;;;;21.44;100.00;98737.81;4923144;28;20241;-57
2023/08/14 00:31:18;;;;;;;10.90;3.87;;;;;;;21.39;100.00;98747.25;4922229;28;20713;-57
2023/08/14 00:33:45;;;;;;;7.77;3.23;;;;;;;21.22;100.00;98738.22;4918171;29;20245;-57
2023/08/14 00:36:13;;;;;;;6.20;3.70;;;;;;;21.06;100.00;98736.94;4940401;28;20225;-57
2023/08/14 00:38:40;;;;;;;7.00;3.30;;;;;;;20.90;100.00;98715.22;4920957;28;20244;-57
2023/08/14 00:41:06;;;;;;;7.87;3.77;;;;;;;20.89;100.00;98692.34;4927221;29;20231;-57
2023/08/14 00:43:33;;;;;;;4.60;3.20;;;;;;;20.84;100.00;98694.84;4925423;28;20229;-57
2023/08/14 00:46:01;;;;;;;7.17;3.80;;;;;;;20.77;100.00;98702.88;4925863;29;20224;-57
2023/08/14 00:48:28;;;;;;;7.17;3.93;;;;;;;20.74;100.00;98705.09;4926051;28;20232;-57
2023/08/14 00:50:55;;;;;;;9.17;4.07;;;;;;;20.67;100.00;98707.00;4927233;29;20234;-56
2023/08/14 00:53:26;;;;;;;10.37;4.10;;;;;;;20.63;100.00;98714.56;4926774;29;20233;-57
2023/08/14 00:55:53;;;;;;;7.27;3.73;;;;;;;20.56;100.00;98703.19;4940814;29;20231;-55
2023/08/14 00:58:20;;;;;;;6.53;4.00;;;;;;;20.46;100.00;98693.84;4921598;29;20238;-59
2023/08/14 01:00:47;;;;;;;7.60;3.67;;;;;;;20.41;100.00;98691.03;4926359;28;20248;-57
2023/08/14 01:03:14;;;;;;;11.27;4.10;;;;;;;20.36;100.00;98688.22;4927440;29;20232;-58
2023/08/14 01:05:41;;;;;;;9.47;3.97;;;;;;;20.32;100.00;98685.19;4929939;29;20233;-58
2023/08/14 01:08:07;;;;;;;11.33;3.73;;;;;;;20.29;100.00;98676.84;4927481;29;20226;-59
2023/08/14 01:10:57;;;;;;;7.93;3.60;;;;;;;20.21;100.00;98675.25;4923660;28;20585;-58
2023/08/14 01:13:31;;;;;;;5.53;2.97;;;;;;;20.27;100.00;98663.81;4924876;28;20226;-59
2023/08/14 01:16:02;;;;;;;7.87;2.60;;;;;;;20.27;100.00;98663.81;4919674;29;20237;-57
2023/08/14 01:18:31;;;;;;;3.37;2.03;;;;;;;20.34;100.00;98650.50;4923448;28;20233;-58
2023/08/14 01:21:12;;;;;;;3.67;1.83;;;;;;;20.36;100.00;98651.09;4941178;28;20248;-60
2023/08/14 01:23:51;;;;;;;4.07;2.03;;;;;;;20.44;100.00;98648.19;4923632;28;20212;-57
2023/08/14 01:26:19;;;;;;;5.70;2.33;;;;;;;20.49;100.00;98653.66;4925756;29;20227;-57
2023/08/14 01:28:46;;;;;;;7.10;1.67;;;;;;;20.50;100.00;98639.38;4925434;28;20242;-56
2023/08/14 01:31:12;;;;;;;2.17;1.47;;;;;;;20.43;100.00;98641.25;4927267;29;20242;-58
2023/08/14 01:33:39;;;;;;;5.43;2.73;;;;;;;20.44;100.00;98650.84;4937591;28;20224;-57
2023/08/14 01:36:13;;;;;;;6.37;2.17;;;;;;;20.41;100.00;98653.91;4926743;29;20697;-57
2023/08/14 01:38:48;;;;;;;4.27;1.73;;;;;;;20.35;100.00;98652.13;4923901;28;20243;-57
2023/08/14 01:41:20;;;;;;;6.30;1.83;;;;;;;20.28;100.00;98648.69;4926324;29;20243;-57
2023/08/14 01:43:49;;;;;;;6.80;2.07;;;;;;;20.25;100.00;98646.47;4916270;29;20243;-57
2023/08/14 01:46:16;;;;;;;5.47;1.60;;;;;;;20.20;100.00;98639.19;4924136;29;20233;-57
2023/08/14 01:48:44;;;;;;;4.23;1.50;;;;;;;20.16;100.00;98636.13;4922806;29;20214;-57
2023/08/14 01:51:12;;;;;;;7.77;1.90;;;;;;;20.11;100.00;98638.63;4927539;29;20224;-57
2023/08/14 01:53:41;;;;;;;7.17;1.57;;;;;;;20.05;100.00;98636.84;4924633;28;20221;-57
2023/08/14 01:56:08;;;;;;;5.70;1.53;;;;;;;19.91;100.00;98626.31;4941879;28;20608;-56
2023/08/14 01:58:36;;;;;;;2.60;1.50;;;;;;;19.89;100.00;98627.53;4923419;28;20222;-57
2023/08/14 02:01:02;;;;;;;4.20;1.50;;;;;;;19.88;100.00;98628.50;4941336;28;20237;-56
2023/08/14 02:03:29;;;;;;;8.97;2.37;;;;;;;19.97;100.00;98631.78;4924016;28;20245;-57
2023/08/14 02:05:56;;;;;;;5.13;2.03;;;;;;;19.97;100.00;98634.44;4926067;29;20251;-56
2023/08/14 02:08:23;;;;;;;2.80;1.80;;;;;;;19.95;100.00;98624.03;4930200;28;20240;-55
2023/08/14 02:10:49;;;;;;;2.63;1.93;;;;;;;19.92;100.00;98621.81;4918696;29;20229;-57
2023/08/14 02:13:16;;;;;;;2.77;1.70;;;;;;;19.91;100.00;98623.66;4919744;29;20769;-56
2023/08/14 02:15:46;;;;;;;6.17;2.00;;;;;;;19.86;100.00;98622.63;4923825;29;20230;-54
2023/08/14 02:18:13;;;;;;;4.13;1.97;;;;;;;19.73;100.00;98632.25;4916354;29;20566;-53
2023/08/14 02:20:45;;;;;;;5.73;1.90;;;;;;;19.68;100.00;98628.63;4928994;29;20246;-56
2023/08/14 02:23:12;;;;;;;6.73;2.10;;;;;;;19.60;100.00;98627.03;4942001;28;20214;-56
2023/08/14 02:25:40;;;;;;;3.60;2.10;;;;;;;19.46;100.00;98626.25;4927909;29;20222;-57
2023/08/14 02:28:07;;;;;;;4.60;2.00;;;;;;;19.36;100.00;98623.22;4927971;29;20222;-57
2023/08/14 02:30:36;;;;;;;4.37;2.30;;;;;;;19.23;100.00;98630.16;4923907;29;20237;-57
2023/08/14 02:33:05;;;;;;;6.80;2.20;;;;;;;19.15;100.00;98628.56;4941841;29;20238;-55
2023/08/14 02:35:31;;;;;;;9.23;1.90;;;;;;;19.05;100.00;98627.38;4923525;29;20240;-57
2023/08/14 02:37:58;;;;;;;5.73;2.10;;;;;;;18.98;100.00;98624.72;4926224;29;20229;-57
2023/08/14 02:40:24;;;;;;;5.97;2.47;;;;;;;18.87;100.00;98626.94;4925164;29;20220;-56
2023/08/14 02:42:51;;;;;;;6.37;2.40;;;;;;;18.78;100.00;98625.53;4927560;29;20231;-56
2023/08/14 02:45:17;;;;;;;6.90;2.70;;;;;;;18.73;100.00;98636.72;4927753;29;20229;-56
2023/08/14 02:47:44;;;;;;;7.17;2.50;;;;;;;18.70;100.00;98631.84;4923597;29;20237;-56
2023/08/14 02:50:12;;;;;;;6.20;2.13;;;;;;;18.68;100.00;98625.94;4941758;29;20225;-57
2023/08/14 02:52:39;;;;;;;4.20;2.37;;;;;;;18.67;100.00;98628.78;4922811;28;20334;-57
2023/08/14 02:55:06;;;;;;;5.47;2.40;;;;;;;18.61;100.00;98626.94;4927201;29;20224;-57
2023/08/14 02:57:32;;;;;;;6.63;2.17;;;;;;;18.60;100.00;98615.56;4923405;28;20595;-57
2023/08/14 02:59:59;;;;;;;4.67;2.00;;;;;;;18.54;100.00;98619.03;4927482;29;20230;-57
2023/08/14 03:05:07;;;;;;;9.90;2.50;;;;;;;18.57;100.00;98610.69;5079914;23;20242;-56
2023/08/14 03:07:35;;;;;;;5.80;2.13;;;;;;;18.57;100.00;98602.75;4938221;28;20710;-56
2023/08/14 03:10:02;;;;;;;5.00;2.43;;;;;;;18.58;100.00;98599.09;4945376;28;20219;-57
2023/08/14 03:12:28;;;;;;;5.63;2.50;;;;;;;18.57;100.00;98605.41;4944028;28;20238;-56
2023/08/14 03:14:55;;;;;;;7.83;2.30;;;;;;;18.62;100.00;98613.53;4931300;28;20245;-56
2023/08/14 03:17:21;;;;;;;3.90;1.90;;;;;;;18.71;100.00;98614.97;4925000;29;20229;-56
2023/08/14 03:19:48;;;;;;;9.17;2.20;;;;;;;18.72;100.00;98613.94;4922771;28;20249;-55
2023/08/14 03:22:14;;;;;;;6.20;2.33;;;;;;;18.72;100.00;98623.69;4940294;28;20234;-56
2023/08/14 03:24:44;;;;;;;6.23;2.20;;;;;;;18.71;100.00;98630.81;4925024;28;20354;-56
2023/08/14 03:27:11;;;;;;;6.00;2.00;;;;;;;18.67;100.00;98632.25;4925664;28;20240;-56
2023/08/14 03:29:38;;;;;;;10.20;2.47;;;;;;;18.60;100.00;98623.50;4925170;28;20254;-56
2023/08/14 03:32:06;;;;;;;8.70;3.10;;;;;;;18.59;100.00;98627.16;5139174;23;20250;-55
2023/08/14 03:34:33;;;;;;;8.57;4.03;;;;;;;18.62;100.00;98633.84;4908081;29;20240;-56
2023/08/14 03:36:59;;;;;;;6.17;2.33;;;;;;;18.60;100.00;98628.78;4896885;29;20236;-56
2023/08/14 03:39:26;;;;;;;5.63;2.40;;;;;;;18.58;100.00;98633.47;4894484;29;20289;-56
2023/08/14 03:41:54;;;;;;;4.17;2.23;;;;;;;18.52;100.00;98627.16;4898278;29;20245;-56
2023/08/14 03:44:21;;;;;;;5.33;2.20;;;;;;;18.51;100.00;98625.53;4896045;29;20233;-57
2023/08/14 03:46:47;;;;;;;3.47;2.23;;;;;;;18.42;100.00;98632.84;4897183;29;20246;-54
2023/08/14 03:49:15;;;;;;;7.17;2.23;;;;;;;18.40;100.00;98628.78;4895501;29;20239;-56
2023/08/14 03:51:42;;;;;;;5.47;2.00;;;;;;;18.31;100.00;98630.00;4894812;29;20243;-57
2023/08/14 03:54:09;;;;;;;7.13;2.57;;;;;;;18.28;100.00;98623.25;4904907;29;20229;-54
2023/08/14 03:56:36;;;;;;;5.20;2.50;;;;;;;18.30;100.00;98621.22;4895692;29;20244;-55
2023/08/14 03:59:05;;;;;;;9.17;2.20;;;;;;;18.27;100.00;98637.50;4898943;29;20234;-56
2023/08/14 04:01:32;;;;;;;7.83;2.27;;;;;;;18.24;100.00;98628.16;4894503;29;20349;-54
2023/08/14 04:03:59;;;;;;;5.97;2.53;;;;;;;18.21;100.00;98622.44;4904229;29;20450;-56
2023/08/14 04:06:26;;;;;;;7.27;2.47;;;;;;;18.24;100.00;98635.25;4902677;29;20574;-56
2023/08/14 04:08:53;;;;;;;6.90;2.20;;;;;;;18.26;100.00;98623.47;4900255;29;20288;-55
2023/08/14 04:11:24;;;;;;;6.70;2.10;;;;;;;18.26;100.00;98639.34;4909332;29;20260;-56
2023/08/14 04:13:51;;;;;;;5.97;2.17;;;;;;;18.32;100.00;98647.47;4905458;29;20633;-56
2023/08/14 04:16:19;;;;;;;6.73;2.40;;;;;;;18.35;100.00;98639.16;4898530;29;20250;-55
2023/08/14 04:18:45;;;;;;;2.73;2.10;;;;;;;18.31;100.00;98648.50;4895590;29;20624;-55
2023/08/14 04:21:12;;;;;;;4.53;2.07;;;;;;;18.31;100.00;98651.13;4899080;29;20243;-57
2023/08/14 04:23:39;;;;;;;5.10;1.80;;;;;;;18.28;100.00;98641.75;4913594;29;20257;-56
2023/08/14 04:26:05;;;;;;;5.43;1.90;;;;;;;18.27;100.00;98630.41;4893543;29;20229;-57
2023/08/14 04:28:32;;;;;;;5.27;1.90;;;;;;;18.27;100.00;98625.09;4907794;29;20229;-57
2023/08/14 04:30:58;;;;;;;8.10;1.90;;;;;;;18.24;100.00;98614.09;4913576;29;20722;-57
2023/08/14 04:33:26;;;;;;;7.30;1.67;;;;;;;18.32;100.00;98613.91;4911239;29;20242;-57
2023/08/14 04:35:53;;;;;;;6.07;1.87;;;;;;;18.31;100.00;98598.28;4898161;29;20227;-56
2023/08/14 04:38:20;;;;;;;3.30;1.83;;;;;;;18.35;100.00;98594.22;4902132;29;20317;-56
2023/08/14 04:40:49;;;;;;;2.93;1.77;;;;;;;18.41;100.00;98585.50;4897471;29;20305;-56
2023/08/14 04:43:17;;;;;;;6.07;1.90;;;;;;;18.46;100.00;98576.94;4896701;29;20807;-56
2023/08/14 04:45:46;;;;;;;5.87;2.27;;;;;;;18.51;100.00;98567.41;4905568;29;20245;-56
2023/08/14 04:48:12;;;;;;;8.57;2.03;;;;;;;18.51;100.00;98550.72;4901247;29;20301;-57
2023/08/14 04:50:41;;;;;;;6.37;2.07;;;;;;;18.55;100.00;98551.94;4895914;29;20248;-57
2023/08/14 04:53:08;;;;;;;2.93;1.73;;;;;;;18.62;100.00;98530.75;4913426;29;20251;-56
2023/08/14 04:55:37;;;;;;;4.50;1.60;;;;;;;18.72;100.00;98541.72;4896954;29;20230;-56
2023/08/14 04:58:04;;;;;;;5.03;1.53;;;;;;;18.82;100.00;98536.84;4908009;29;20707;-55
2023/08/14 05:00:32;;;;;;;3.23;1.97;;;;;;;18.93;100.00;98526.63;4896470;29;20230;-55
2023/08/14 05:03:02;;;;;;;4.37;1.67;;;;;;;19.27;100.00;98527.38;4896269;29;20232;-56
2023/08/14 05:05:29;;;;;;;5.93;1.77;;;;;;;19.05;100.00;98522.38;4894365;29;20234;-57
2023/08/14 05:07:57;;;;;;;5.73;1.87;;;;;;;19.02;100.00;98522.78;4901346;29;20715;-56
2023/08/14 05:10:24;;;;;;;4.73;1.70;;;;;;;18.98;100.00;98537.44;4896376;29;20346;-56
2023/08/14 05:12:50;;;;;;;6.80;1.67;;;;;;;18.93;100.00;98540.69;4899312;29;20234;-57
2023/08/14 05:15:17;;;;;;;4.10;1.43;;;;;;;18.94;100.00;98541.50;4900562;29;20230;-54
2023/08/14 05:17:44;;;;;;;4.37;1.93;;;;;;;18.97;100.00;98541.94;4895084;29;20246;-55
2023/08/14 05:20:12;;;;;;;2.67;1.50;;;;;;;18.98;100.00;98545.38;4898885;29;20237;-56
2023/08/14 05:22:39;;;;;;;4.47;1.50;;;;;;;19.01;100.00;98540.50;4899901;29;20234;-57
2023/08/14 05:25:08;;;;;;;4.07;1.60;;;;;;;19.12;100.00;98540.84;4901034;29;20232;-56
2023/08/14 05:27:38;;;;;;;7.57;1.53;;;;;;;19.25;100.00;98546.09;4897961;29;20245;-55
2023/08/14 05:30:06;;;;;;;4.40;1.77;;;;;;;19.37;100.00;98564.78;4896107;29;20230;-56
2023/08/14 05:32:32;;;;;;;6.70;1.57;;;;;;;19.56;100.00;98572.88;4896331;29;20929;-54
2023/08/14 05:34:59;;;;;;;3.00;1.77;;;;;;;19.73;100.00;98597.81;4902864;29;20243;-56
2023/08/14 05:37:26;;;;;;;7.67;1.70;;;;;;;19.89;100.00;98612.47;4900210;29;20239;-57
2023/08/14 05:39:52;;;;;;;6.60;1.77;;;;;;;19.99;100.00;98619.94;4895564;29;20602;-56
2023/08/14 05:42:20;;;;;;;4.67;1.73;;;;;;;20.04;100.00;98627.25;4898526;29;20600;-57
2023/08/14 05:44:47;;;;;;;3.10;1.83;;;;;;;20.19;100.00;98624.31;4894500;29;20230;-56
2023/08/14 05:47:13;;;;;;;3.23;1.80;;;;;;;20.24;100.00;98621.00;4897990;29;20273;-56
2023/08/14 05:49:40;;;;;;;3.73;2.00;;;;;;;20.29;100.00;98629.13;4896492;29;20243;-57
2023/08/14 05:52:07;;;;;;;5.00;2.17;;;;;;;20.38;100.00;98629.69;4900011;29;20254;-57
2023/08/14 05:54:33;;;;;;;2.80;1.97;;;;;;;20.50;100.00;98638.59;4898362;29;20230;-58
2023/08/14 05:57:00;;;;;;;3.17;2.27;;;;;;;20.53;100.00;98634.66;4896275;29;20235;-57
2023/08/14 05:59:28;;;;;;;2.90;1.93;;;;;;;20.46;100.00;98616.97;4894836;29;20247;-58
2023/08/14 06:01:55;;;;;;;3.93;1.87;;;;;;;20.40;100.00;98612.53;4897418;29;20334;-57
2023/08/14 06:04:21;;;;;;;3.23;2.00;;;;;;;20.33;100.00;98609.94;4899380;29;20343;-58
2023/08/14 06:06:48;;;;;;;3.30;2.10;;;;;;;20.32;100.00;98610.13;4895284;29;20233;-57
2023/08/14 06:09:17;;;;;;;4.20;2.23;;;;;;;20.29;100.00;98598.16;4899071;29;20238;-58
2023/08/14 06:11:44;;;;;;;4.10;1.97;;;;;;;20.28;100.00;98595.69;4896382;29;20244;-57
2023/08/14 06:14:10;;;;;;;3.43;2.07;;;;;;;20.30;100.00;98588.34;4898106;29;20259;-57
2023/08/14 06:16:38;;;;;;;4.27;1.80;;;;;;;20.25;100.00;98591.66;4897145;29;20944;-56
2023/08/14 06:19:05;;;;;;;6.03;2.00;;;;;;;20.26;100.00;98587.13;4898942;29;20242;-57
2023/08/14 06:21:32;;;;;;;2.60;1.93;;;;;;;20.34;100.00;98595.66;4896974;29;20243;-57
2023/08/14 06:23:58;;;;;;;3.63;1.70;;;;;;;20.40;100.00;98583.38;4900766;29;20245;-57
2023/08/14 06:26:25;;;;;;;2.90;1.77;;;;;;;20.38;100.00;98580.13;4895552;29;20229;-57
2023/08/14 06:28:51;;;;;;;5.73;1.90;;;;;;;20.45;100.00;98575.56;4896184;29;20248;-54
2023/08/14 06:31:44;;;;;;;5.40;2.03;;;;;;;20.39;100.00;98571.13;4895030;29;21291;-57
2023/08/14 06:34:11;;;;;;;3.13;1.60;;;;;;;20.46;100.00;98569.25;4895764;29;20224;-54
2023/08/14 06:36:41;;;;;;;4.30;2.03;;;;;;;20.37;100.00;98569.75;4895977;29;20239;-58
2023/08/14 06:39:08;;;;;;;3.10;1.77;;;;;;;20.49;100.00;98568.81;4897429;29;20247;-57
2023/08/14 06:41:35;;;;;;;2.93;1.93;;;;;;;20.56;100.00;98562.66;4897287;29;20226;-57
2023/08/14 06:44:08;;;;;;;4.67;1.87;;;;;;;20.70;100.00;98565.97;4906283;29;20271;-57
2023/08/14 06:46:35;;;;;;;3.07;2.00;;;;;;;20.78;100.00;98566.56;4894883;29;20242;-55
2023/08/14 06:49:03;;;;;;;3.40;2.10;;;;;;;20.89;100.00;98564.22;4901720;29;20228;-57
2023/08/14 06:51:29;;;;;;;4.60;1.73;;;;;;;20.83;100.00;98565.88;4896281;29;20241;-57
2023/08/14 06:53:56;;;;;;;7.73;2.00;;;;;;;20.86;100.00;98564.66;4896800;29;20232;-57
2023/08/14 06:56:25;;;;;;;4.83;2.20;;;;;;;21.03;100.00;98564.88;4893877;29;20243;-58
2023/08/14 06:58:52;;;;;;;5.10;2.43;;;;;;;21.13;100.00;98567.03;4899038;29;20234;-57
2023/08/14 07:01:23;;;;;;;4.87;2.10;;;;;;;21.25;100.00;98573.19;4894224;29;20684;-55
2023/08/14 07:03:50;;;;;;;3.17;2.10;;;;;;;21.42;100.00;98576.06;4894364;29;20259;-56
2023/08/14 07:06:18;;;;;;;3.53;2.63;;;;;;;21.56;100.00;98590.00;4901698;29;20219;-56
2023/08/14 07:08:44;;;;;;;4.60;2.40;;;;;;;21.77;100.00;98596.69;4896401;29;20245;-54
2023/08/14 07:11:11;;;;;;;5.43;2.90;;;;;;;21.83;100.00;98598.44;4897693;29;20587;-57
2023/08/14 07:13:37;;;;;;;4.93;2.80;;;;;;;21.94;100.00;98596.88;4894503;29;20832;-55
2023/08/14 07:16:04;;;;;;;3.87;2.50;;;;;;;22.15;100.00;98605.41;4895496;29;20238;-57
2023/08/14 07:18:31;;;;;;;5.63;2.60;;;;;;;22.06;100.00;98602.22;4896500;29;20243;-57
2023/08/14 07:20:58;;;;;;;4.33;2.30;;;;;;;22.18;100.00;98601.47;4896754;29;20575;-57
2023/08/14 07:23:26;;;;;;;6.00;2.90;;;;;;;22.17;100.00;98607.81;4893779;29;20234;-56
2023/08/14 07:25:52;;;;;;;3.50;2.70;;;;;;;22.36;100.00;98612.03;4895659;29;20616;-58
2023/08/14 07:28:19;;;;;;;3.10;2.80;;;;;;;22.49;100.00;98608.34;4895475;29;20240;-57
2023/08/14 07:30:46;;;;;;;3.40;2.90;;;;;;;22.59;100.00;98609.66;4897138;29;20227;-57
2023/08/14 07:33:13;;;;;;;5.40;3.10;;;;;;;22.61;100.00;98611.06;4901254;29;20230;-57
2023/08/14 07:35:40;;;;;;;5.10;2.60;;;;;;;22.75;100.00;98613.50;4899205;29;20884;-58
2023/08/14 07:38:06;;;;;;;6.80;3.00;;;;;;;22.85;100.00;98601.22;4894253;29;20755;-57
2023/08/14 07:40:34;;;;;;;8.23;2.93;;;;;;;22.91;100.00;98604.00;4907037;29;20330;-57
2023/08/14 07:43:01;;;;;;;4.37;2.10;;;;;;;23.02;100.00;98602.34;4897812;29;20294;-57
2023/08/14 07:45:28;;;;;;;8.53;2.67;;;;;;;23.14;100.00;98605.81;4899047;29;20242;-58
2023/08/14 07:47:55;;;;;;;4.77;2.20;;;;;;;23.31;100.00;98613.13;4900187;29;20236;-57
2023/08/14 07:50:21;;;;;;;5.27;2.43;;;;;;;23.46;100.00;98618.75;4900609;29;20611;-56
2023/08/14 07:52:48;;;;;;;6.47;2.40;;;;;;;23.55;98.56;98621.84;4898823;29;20242;-55
2023/08/14 07:55:14;;;;;;;2.90;2.00;;;;;;;23.57;97.98;98620.59;4901996;29;20763;-56
2023/08/14 07:57:45;;;;;;;2.80;1.90;;;;;;;23.75;99.31;98629.47;4897449;29;20580;-57
2023/08/14 08:00:14;;;;;;;3.50;2.37;;;;;;;23.89;93.27;98627.31;4902242;29;20250;-56
2023/08/14 08:02:40;;;;;;;4.83;2.23;;;;;;;24.14;91.94;98632.31;4897486;29;20329;-57
2023/08/14 08:05:08;;;;;;;6.67;2.70;;;;;;;24.50;94.39;98633.97;4899190;29;20247;-57
2023/08/14 08:07:34;;;;;;;3.40;2.43;;;;;;;25.01;87.59;98648.13;4897474;29;20238;-57
2023/08/14 08:10:01;;;;;;;4.50;2.97;;;;;;;24.62;88.74;98651.53;4901732;29;20597;-57
2023/08/14 08:12:28;;;;;;;3.03;2.63;;;;;;;24.97;84.14;98659.56;4896136;29;20236;-58
2023/08/14 08:14:56;;;;;;;6.00;2.80;;;;;;;25.25;83.89;98653.25;4899280;29;20243;-57
2023/08/14 08:17:23;;;;;;;5.30;2.63;;;;;;;25.17;84.01;98643.81;4899968;29;20899;-57
2023/08/14 08:19:52;;;;;;;3.10;2.70;;;;;;;25.33;84.28;98646.69;4897971;29;20700;-57
2023/08/14 08:22:19;;;;;;;4.33;2.50;;;;;;;25.84;84.68;98649.19;4898859;29;20230;-57
2023/08/14 08:24:46;;;;;;;3.17;2.67;;;;;;;26.18;82.68;98645.56;4899227;29;20249;-58
2023/08/14 08:27:12;;;;;;;4.87;2.53;;;;;;;26.36;79.54;98653.22;4901687;29;20335;-56
2023/08/14 08:29:39;;;;;;;5.20;2.70;;;;;;;26.54;76.39;98664.56;4897671;29;20233;-55
2023/08/14 08:32:08;;;;;;;6.53;2.77;;;;;;;26.43;80.14;98668.25;4898786;29;20247;-57
2023/08/14 08:34:34;;;;;;;7.73;2.57;;;;;;;26.45;76.44;98669.59;4895820;29;20238;-55
2023/08/14 08:37:01;;;;;;;4.20;2.60;;;;;;;26.46;77.30;98673.09;4901245;29;20221;-57
2023/08/14 08:39:27;;;;;;;4.80;2.70;;;;;;;26.50;77.66;98671.53;4899796;29;20229;-57
2023/08/14 08:41:57;;;;;;;4.20;2.67;;;;;;;26.29;77.49;98668.66;4901744;29;20247;-56
2023/08/14 08:44:26;;;;;;;3.93;2.67;;;;;;;26.36;78.25;98660.41;4900383;29;20237;-57
2023/08/14 08:46:58;;;;;;;5.30;2.87;;;;;;;26.66;77.72;98662.53;4896608;29;20234;-56
2023/08/14 08:49:26;;;;;;;4.73;2.60;;;;;;;26.28;77.30;98653.69;4902141;29;20238;-57
2023/08/14 08:51:55;;;;;;;3.63;2.53;;;;;;;26.12;77.48;98658.03;4898766;29;20597;-57
2023/08/14 08:54:21;;;;;;;5.03;2.50;;;;;;;26.28;79.08;98656.34;4899963;29;20250;-56
2023/08/14 08:56:48;;;;;;;2.60;2.40;;;;;;;26.23;77.77;98654.41;4897784;29;20254;-57
2023/08/14 08:59:15;;;;;;;2.73;2.50;;;;;;;26.46;77.80;98655.16;4901626;29;20245;-55
2023/08/14 09:01:43;;;;;;;3.70;3.00;;;;;;;26.50;75.97;98652.78;4897007;29;20733;-54
2023/08/14 09:04:09;;;;;;;5.50;2.80;;;;;;;26.37;77.21;98654.00;4900127;29;20315;-56
2023/08/14 09:06:37;;;;;;;3.23;2.50;;;;;;;26.87;77.50;98656.56;4900014;29;20239;-57
2023/08/14 09:09:06;;;;;;;4.67;2.73;;;;;;;26.85;76.06;98645.31;4902472;29;20239;-61
2023/08/14 09:11:33;;;;;;;6.37;2.97;;;;;;;27.08;74.84;98646.78;4897480;28;20235;-58
2023/08/14 09:14:00;;;;;;;3.80;2.63;;;;;;;27.03;72.87;98646.75;4898469;29;20235;-57
2023/08/14 09:16:28;;;;;;;3.13;2.50;;;;;;;27.09;72.98;98646.50;4905428;29;20725;-57
2023/08/14 09:18:58;;;;;;;6.43;3.10;;;;;;;27.04;73.86;98651.84;4901246;29;20239;-56
2023/08/14 09:21:25;;;;;;;3.77;2.73;;;;;;;27.01;74.62;98652.38;4898225;29;20273;-55
2023/08/14 09:23:54;;;;;;;5.30;2.60;;;;;;;27.20;73.52;98655.44;4894487;29;20238;-58
2023/08/14 09:26:26;;;;;;;3.30;2.60;;;;;;;26.99;73.23;98656.38;4898162;29;20318;-57
2023/08/14 09:28:53;;;;;;;8.70;2.90;;;;;;;26.85;75.32;98659.50;4898266;29;20234;-58
2023/08/14 09:31:25;;;;;;;5.93;3.00;;;;;;;26.64;77.12;98661.19;4894084;29;20712;-57
2023/08/14 09:33:51;;;;;;;5.53;2.80;;;;;;;26.55;78.35;98657.38;4897303;29;20238;-57
2023/08/14 09:36:20;;;;;;;3.43;3.00;;;;;;;26.73;75.23;98658.84;4897129;29;20239;-58
2023/08/14 09:38:51;;;;;;;4.53;2.50;;;;;;;26.67;75.62;98666.84;4894077;29;20242;-57
2023/08/14 09:41:20;;;;;;;4.50;2.87;;;;;;;26.78;75.79;98672.25;4900000;29;20242;-57
2023/08/14 09:43:46;;;;;;;4.87;3.00;;;;;;;26.71;78.07;98679.69;4895558;29;20246;-57
2023/08/14 09:46:14;;;;;;;5.13;2.70;;;;;;;27.09;74.73;98684.00;4897659;29;20590;-57
2023/08/14 09:48:41;;;;;;;5.97;3.60;;;;;;;26.78;77.65;98693.69;4896212;29;20241;-58
2023/08/14 09:51:11;;;;;;;3.57;2.90;;;;;;;27.17;73.13;98704.19;4897039;29;20247;-58
2023/08/14 09:53:44;;;;;;;4.40;2.90;;;;;;;26.92;76.10;98705.59;4895887;29;20296;-57
2023/08/14 09:56:12;;;;;;;4.47;3.30;;;;;;;26.74;79.84;98695.25;4902141;29;20306;-58
2023/08/14 09:58:41;;;;;;;4.00;3.20;;;;;;;26.75;77.12;98691.53;4895260;29;20256;-58
2023/08/14 10:01:08;;;;;;;6.97;3.37;;;;;;;27.16;76.95;98707.91;4895353;29;20257;-58
2023/08/14 10:03:36;;;;;;;5.97;3.30;;;;;;;27.16;74.18;98707.91;4896945;29;20256;-56
2023/08/14 10:06:04;;;;;;;6.20;3.47;;;;;;;27.29;74.46;98701.28;4899698;29;20567;-58
2023/08/14 10:08:35;;;;;;;6.73;3.20;;;;;;;27.51;73.23;98701.19;4896217;29;20242;-58
2023/08/14 10:11:05;;;;;;;3.27;2.90;;;;;;;27.76;72.00;98710.38;4901960;29;20265;-58
2023/08/14 10:13:33;;;;;;;6.90;3.60;;;;;;;27.55;75.19;98706.81;4894764;29;20243;-58
2023/08/14 10:16:09;;;;;;;4.93;3.08;;;;;;;27.76;70.68;98707.69;4896621;29;20236;-58
2023/08/14 10:18:40;;;;;;;4.67;3.50;;;;;;;26.86;78.72;98711.19;4896232;29;20248;-58
2023/08/14 10:21:12;;;;;;;5.20;3.50;;;;;;;27.23;76.38;98724.56;4898573;29;20581;-57
2023/08/14 10:23:40;;;;;;;3.40;3.10;;;;;;;27.23;74.26;98719.22;4896816;29;20762;-57
2023/08/14 10:26:08;;;;;;;4.57;3.10;;;;;;;27.38;74.15;98718.50;4898146;29;20242;-58
2023/08/14 10:28:35;;;;;;;5.20;3.28;;;;;;;27.55;73.91;98709.50;4896484;29;20268;-57
2023/08/14 10:31:03;;;;;;;4.13;3.30;;;;;;;27.81;74.45;98710.41;4897173;29;20253;-58
2023/08/14 10:33:31;;;;;;;7.57;3.50;;;;;;;27.92;72.02;98711.25;4896165;29;20226;-54
2023/08/14 10:35:58;;;;;;;4.20;3.40;;;;;;;27.80;71.48;98708.78;4897420;29;20241;-57
2023/08/14 10:38:39;;;;;;;3.03;2.73;;;;;;;28.13;69.99;98717.53;4895469;29;20238;-57
2023/08/14 10:41:07;;;;;;;3.43;3.10;;;;;;;28.23;68.47;98707.88;4898359;29;20566;-54
2023/08/14 10:43:33;;;;;;;4.00;3.20;;;;;;;28.17;69.61;98717.00;4896524;29;20244;-58
2023/08/14 10:46:09;;;;;;;5.75;3.10;;;;;;;28.49;67.56;98710.59;4894517;29;20231;-56
2023/08/14 10:48:36;;;;;;;3.83;3.08;;;;;;;28.46;67.89;98719.19;4895542;29;20299;-59
2023/08/14 10:51:03;;;;;;;3.87;2.70;;;;;;;28.40;66.54;98713.00;4897202;29;20662;-57
2023/08/14 10:53:30;;;;;;;5.47;2.77;;;;;;;28.56;68.38;98706.56;4891281;29;20234;-56
2023/08/14 10:55:57;;;;;;;3.75;3.33;;;;;;;28.64;65.38;98710.59;4896757;29;20240;-55
2023/08/14 10:58:51;;;;;;;3.57;2.70;;;;;;;29.00;62.86;98707.13;4896212;29;20246;-56
2023/08/14 11:01:19;;;;;;;3.17;2.88;;;;;;;28.96;62.55;98701.47;4854965;29;20251;-56
2023/08/14 11:03:59;;;;;;;3.72;2.95;;;;;;;28.78;64.23;98702.03;4891907;29;20624;-57
2023/08/14 11:06:27;;;;;;;4.30;2.75;;;;;;;28.94;62.99;98692.88;4894753;29;20237;-58
2023/08/14 11:09:04;;;;;;;2.92;2.67;;;;;;;28.70;63.11;98688.03;4895560;29;20235;-55
2023/08/14 11:11:30;;;;;;;4.10;3.00;;;;;;;28.74;63.28;98691.00;4894221;29;20689;-54
2023/08/14 11:13:57;;;;;;;3.70;2.80;;;;;;;28.60;64.69;98684.56;4898019;29;20238;-55
2023/08/14 11:16:26;;;;;;;3.87;3.23;;;;;;;27.90;65.85;98675.03;4893570;29;20223;-58
2023/08/14 11:18:54;;;;;;;5.70;3.63;;;;;;;27.88;65.05;98664.59;4898020;29;20541;-57
2023/08/14 11:21:25;;;;;;;9.15;3.40;;;;;;;28.13;65.77;98665.72;4889768;29;20248;-58
2023/08/14 11:23:52;;;;;;;3.40;3.10;;;;;;;28.63;63.35;98667.91;4896136;29;20251;-58
2023/08/14 11:26:44;;;;;;;5.88;3.10;;;;;;;28.80;65.42;98665.78;4899358;29;21429;-57
2023/08/14 11:29:11;;;;;;;4.13;3.45;;;;;;;28.75;63.84;98659.56;4900282;29;20237;-57
2023/08/14 11:31:43;;;;;;;4.37;3.03;;;;;;;29.09;61.77;98664.38;4895894;29;20233;-58
2023/08/14 11:34:10;;;;;;;6.83;3.47;;;;;;;28.99;60.82;98657.94;4900729;29;20224;-56